PWSweather.com
Personal Weather Stations
Station Observations

BunburyAU

Lat: -33.378333, Lon: 115.651667

Elevation: 95

Station Type: Fine Offset WH2081

http://www.sedgleymanor.com/wx/index.htm

Latest ConditionsUpdated 4:15:01 PM GMT+08:08 Sunday, Mar 1, 2015
Currently Today's Max Today's Min Today's Average
Temperature 84.4°F29.1°C 95.5°F35.3°C 68.4°F20.2°C 84.8°F29.3°C
Dew Point 58.2°F14.6°C 58.2°F14.6°C 53.3°F11.8°C 54.9°F12.7°C
Winds 7.1 mph S11.4 kmh S 7.1 mph S11.4 kmh S - 4.8 mph 7.7 kmh
Wind Gusts 16.8 mph27.0 kmh 16.8 mph27.0 kmh - -
Humidity 41% 60% 26% 37%
Pressure 29.75 in1007.5 mb 29.90 in1012.5 mb 29.74 in1007.1 mb -
Hour Temp Dew Point Humidity Winds Wind Gusts Pressure Precip Precip Rate Daily Precip Total
04:15 PM 84.4°F29.1°C 58.2°F14.6°C 41% 7.1 mph S11.4 kmh S 16.8 mph27.0 kmh 29.75 in1007.5 mb 0.00 in0.0 mm 0.00 in/hr0.0 mm/hr 0.00 in0.0 mm
04:00 PM 87.4°F30.8°C 56.5°F13.6°C 35% 6.1 mph S9.8 kmh S 15.2 mph24.5 kmh 29.75 in1007.5 mb 0.00 in0.0 mm 0.00 in/hr0.0 mm/hr 0.00 in0.0 mm
03:45 PM 87.6°F30.9°C 55.0°F12.8°C 33% 6.3 mph S10.1 kmh S 15.2 mph24.5 kmh 29.75 in1007.5 mb 0.00 in0.0 mm 0.00 in/hr0.0 mm/hr 0.00 in0.0 mm
03:30 PM 90.0°F32.2°C 53.5°F11.9°C 29% 6.3 mph S10.1 kmh S 15.2 mph24.5 kmh 29.75 in1007.5 mb 0.00 in0.0 mm 0.00 in/hr0.0 mm/hr 0.00 in0.0 mm
03:15 PM 91.6°F33.1°C 55.8°F13.2°C 30% 5.0 mph S8.0 kmh S 15.2 mph24.5 kmh 29.75 in1007.5 mb 0.00 in0.0 mm 0.00 in/hr0.0 mm/hr 0.00 in0.0 mm
03:00 PM 92.3°F33.5°C 55.5°F13.1°C 29% 4.6 mph S7.4 kmh S 10.7 mph17.2 kmh 29.75 in1007.5 mb 0.00 in0.0 mm 0.00 in/hr0.0 mm/hr 0.00 in0.0 mm
02:45 PM 95.5°F35.3°C 55.3°F12.9°C 26% 2.3 mph SSW3.7 kmh SSW 8.3 mph13.4 kmh 29.74 in1007.1 mb 0.00 in0.0 mm 0.00 in/hr0.0 mm/hr 0.00 in0.0 mm
02:30 PM 93.4°F34.1°C 55.5°F13.1°C 28% 5.5 mph SE8.9 kmh SE 14.5 mph23.3 kmh 29.76 in1007.8 mb 0.00 in0.0 mm 0.00 in/hr0.0 mm/hr 0.00 in0.0 mm
02:28 PM 93.9°F34.4°C 56.8°F13.8°C 29% 4.0 mph ESE6.4 kmh ESE 6.9 mph11.1 kmh 29.75 in1007.5 mb 0.00 in0.0 mm 0.00 in/hr0.0 mm/hr 0.00 in0.0 mm
02:15 PM 91.0°F32.8°C 53.5°F11.9°C 28% 5.1 mph SE8.2 kmh SE 15.9 mph25.6 kmh 29.76 in1007.8 mb 0.00 in0.0 mm 0.00 in/hr0.0 mm/hr 0.00 in0.0 mm
02:00 PM 90.3°F32.4°C 53.8°F12.1°C 29% 6.5 mph S10.5 kmh S 14.5 mph23.3 kmh 29.76 in1007.8 mb 0.00 in0.0 mm 0.00 in/hr0.0 mm/hr 0.00 in0.0 mm
01:45 PM 90.7°F32.6°C 54.1°F12.3°C 29% 4.6 mph SE7.4 kmh SE 12.1 mph19.5 kmh 29.78 in1008.5 mb 0.00 in0.0 mm 0.00 in/hr0.0 mm/hr 0.00 in0.0 mm
01:30 PM 90.5°F32.5°C 54.0°F12.2°C 29% 4.8 mph E7.7 kmh E 12.1 mph19.5 kmh 29.78 in1008.5 mb 0.00 in0.0 mm 0.00 in/hr0.0 mm/hr 0.00 in0.0 mm
01:15 PM 91.0°F32.8°C 54.4°F12.4°C 29% 4.3 mph SSE6.9 kmh SSE 10.7 mph17.2 kmh 29.79 in1008.8 mb 0.00 in0.0 mm 0.00 in/hr0.0 mm/hr 0.00 in0.0 mm
01:00 PM 89.8°F32.1°C 53.3°F11.8°C 29% 4.3 mph S6.9 kmh S 11.4 mph18.3 kmh 29.79 in1008.8 mb 0.00 in0.0 mm 0.00 in/hr0.0 mm/hr 0.00 in0.0 mm
12:45 PM 90.0°F32.2°C 54.4°F12.4°C 30% 3.4 mph SSE5.5 kmh SSE 11.4 mph18.3 kmh 29.80 in1009.1 mb 0.00 in0.0 mm 0.00 in/hr0.0 mm/hr 0.00 in0.0 mm
12:30 PM 88.2°F31.2°C 54.6°F12.6°C 32% 4.8 mph SE7.7 kmh SE 12.1 mph19.5 kmh 29.81 in1009.5 mb 0.00 in0.0 mm 0.00 in/hr0.0 mm/hr 0.00 in0.0 mm
12:15 PM 88.3°F31.3°C 53.9°F12.2°C 31% 4.0 mph SE6.4 kmh SE 11.4 mph18.3 kmh 29.81 in1009.5 mb 0.00 in0.0 mm 0.00 in/hr0.0 mm/hr 0.00 in0.0 mm
12:00 PM 88.3°F31.3°C 54.8°F12.7°C 32% 3.8 mph SSE6.1 kmh SSE 11.4 mph18.3 kmh 29.81 in1009.5 mb 0.00 in0.0 mm 0.00 in/hr0.0 mm/hr 0.00 in0.0 mm
11:45 AM 88.9°F31.6°C 55.3°F12.9°C 32% 3.7 mph SE6.0 kmh SE 11.4 mph18.3 kmh 29.82 in1009.8 mb 0.00 in0.0 mm 0.00 in/hr0.0 mm/hr 0.00 in0.0 mm
11:30 AM 87.3°F30.7°C 54.7°F12.6°C 33% 2.2 mph E3.5 kmh E 8.3 mph13.4 kmh 29.83 in1010.2 mb 0.00 in0.0 mm 0.00 in/hr0.0 mm/hr 0.00 in0.0 mm
11:15 AM 84.2°F29.0°C 54.4°F12.4°C 36% 3.8 mph ESE6.1 kmh ESE 10.7 mph17.2 kmh 29.84 in1010.5 mb 0.00 in0.0 mm 0.00 in/hr0.0 mm/hr 0.00 in0.0 mm
11:00 AM 83.8°F28.8°C 55.6°F13.1°C 38% 3.7 mph E6.0 kmh E 10.7 mph17.2 kmh 29.84 in1010.5 mb 0.00 in0.0 mm 0.00 in/hr0.0 mm/hr 0.00 in0.0 mm
10:45 AM 83.8°F28.8°C 57.7°F14.3°C 41% 3.1 mph E5.0 kmh E 10.7 mph17.2 kmh 29.86 in1011.2 mb 0.00 in0.0 mm 0.00 in/hr0.0 mm/hr 0.00 in0.0 mm
10:30 AM 83.1°F28.4°C 57.0°F13.9°C 41% 3.5 mph E5.6 kmh E 11.4 mph18.3 kmh 29.86 in1011.2 mb 0.00 in0.0 mm 0.00 in/hr0.0 mm/hr 0.00 in0.0 mm
10:15 AM 80.2°F26.8°C 54.4°F12.4°C 41% 3.8 mph E6.1 kmh E 9.2 mph14.8 kmh 29.86 in1011.2 mb 0.00 in0.0 mm 0.00 in/hr0.0 mm/hr 0.00 in0.0 mm
10:00 AM 79.9°F26.6°C 54.8°F12.7°C 42% 3.4 mph ENE5.5 kmh ENE 8.3 mph13.4 kmh 29.87 in1011.5 mb 0.00 in0.0 mm 0.00 in/hr0.0 mm/hr 0.00 in0.0 mm
09:45 AM 78.1°F25.6°C 55.0°F12.8°C 45% 4.7 mph E7.6 kmh E 10.7 mph17.2 kmh 29.87 in1011.5 mb 0.00 in0.0 mm 0.00 in/hr0.0 mm/hr 0.00 in0.0 mm
09:30 AM 76.1°F24.5°C 55.0°F12.8°C 48% 5.3 mph E8.5 kmh E 13.0 mph20.9 kmh 29.88 in1011.9 mb 0.00 in0.0 mm 0.00 in/hr0.0 mm/hr 0.00 in0.0 mm
09:15 AM 74.8°F23.8°C 54.4°F12.4°C 49% 5.2 mph SE8.4 kmh SE 11.4 mph18.3 kmh 29.88 in1011.9 mb 0.00 in0.0 mm 0.00 in/hr0.0 mm/hr 0.00 in0.0 mm
09:00 AM 73.9°F23.3°C 54.2°F12.3°C 50% 5.5 mph ESE8.9 kmh ESE 12.1 mph19.5 kmh 29.89 in1012.2 mb 0.00 in0.0 mm 0.00 in/hr0.0 mm/hr 0.00 in0.0 mm
08:45 AM 72.0°F22.2°C 53.4°F11.9°C 52% 6.2 mph SE10.0 kmh SE 15.2 mph24.5 kmh 29.89 in1012.2 mb 0.00 in0.0 mm 0.00 in/hr0.0 mm/hr 0.00 in0.0 mm
08:30 AM 70.9°F21.6°C 53.9°F12.2°C 55% 6.4 mph E10.3 kmh E 13.6 mph21.9 kmh 29.89 in1012.2 mb 0.00 in0.0 mm 0.00 in/hr0.0 mm/hr 0.00 in0.0 mm
08:15 AM 69.1°F20.6°C 54.2°F12.3°C 59% 6.5 mph E10.5 kmh E 15.2 mph24.5 kmh 29.90 in1012.5 mb 0.00 in0.0 mm 0.00 in/hr0.0 mm/hr 0.00 in0.0 mm
08:00 AM 68.4°F20.2°C 54.0°F12.2°C 60% 6.5 mph E10.5 kmh E 15.9 mph25.6 kmh 29.90 in1012.5 mb 0.00 in0.0 mm 0.00 in/hr0.0 mm/hr 0.00 in0.0 mm